sensor_id;sensor_type;location;lat;lon;timestamp;pressure;altitude;pressure_sealevel;temperature;humidity
35878;BME280;21982;49.804;24.072;2023-06-24T00:01:27;97220.91;;;20.03;83.58
35878;BME280;21982;49.804;24.072;2023-06-24T00:03:52;97193.88;;;19.93;83.56
35878;BME280;21982;49.804;24.072;2023-06-24T00:06:21;97174.19;;;19.88;83.36
35878;BME280;21982;49.804;24.072;2023-06-24T00:11:24;97219.00;;;20.26;83.45
35878;BME280;21982;49.804;24.072;2023-06-24T00:13:52;97148.53;;;19.75;83.37
35878;BME280;21982;49.804;24.072;2023-06-24T00:16:17;97131.28;;;19.71;83.36
35878;BME280;21982;49.804;24.072;2023-06-24T00:18:43;97205.50;;;20.21;83.60
35878;BME280;21982;49.804;24.072;2023-06-24T00:21:08;97225.00;;;20.33;83.64
35878;BME280;21982;49.804;24.072;2023-06-24T00:26:12;97177.88;;;20.03;83.36
35878;BME280;21982;49.804;24.072;2023-06-24T00:28:39;97177.38;;;20.06;83.53
35878;BME280;21982;49.804;24.072;2023-06-24T00:41:27;97222.44;;;20.21;83.93
35878;BME280;21982;49.804;24.072;2023-06-24T00:43:52;97246.59;;;20.38;83.64
35878;BME280;21982;49.804;24.072;2023-06-24T00:46:18;97242.84;;;20.39;83.79
35878;BME280;21982;49.804;24.072;2023-06-24T00:48:45;97243.75;;;20.28;83.56
35878;BME280;21982;49.804;24.072;2023-06-24T00:51:11;97131.28;;;19.71;83.87
35878;BME280;21982;49.804;24.072;2023-06-24T00:53:38;97182.69;;;20.01;83.69
35878;BME280;21982;49.804;24.072;2023-06-24T00:56:04;97124.28;;;19.70;84.00
35878;BME280;21982;49.804;24.072;2023-06-24T00:58:31;97226.06;;;20.32;83.82
35878;BME280;21982;49.804;24.072;2023-06-24T01:00:58;97141.53;;;19.74;83.84
35878;BME280;21982;49.804;24.072;2023-06-24T01:03:25;97236.44;;;20.23;84.07
35878;BME280;21982;49.804;24.072;2023-06-24T01:05:51;97232.31;;;20.16;84.50
35878;BME280;21982;49.804;24.072;2023-06-24T01:08:17;97242.41;;;20.03;84.66
35878;BME280;21982;49.804;24.072;2023-06-24T01:10:44;97197.31;;;19.67;85.03
35878;BME280;21982;49.804;24.072;2023-06-24T01:13:10;97240.00;;;19.85;85.43
35878;BME280;21982;49.804;24.072;2023-06-24T01:15:35;97263.38;;;19.85;85.59
35878;BME280;21982;49.804;24.072;2023-06-24T01:18:07;97260.84;;;19.78;85.96
35878;BME280;21982;49.804;24.072;2023-06-24T01:20:52;97265.16;;;19.79;85.97
35878;BME280;21982;49.804;24.072;2023-06-24T01:23:42;97266.75;;;19.75;86.19
35878;BME280;21982;49.804;24.072;2023-06-24T01:27:17;97237.22;;;19.58;85.86
35878;BME280;21982;49.804;24.072;2023-06-24T01:32:19;97283.00;;;19.85;86.62
35878;BME280;21982;49.804;24.072;2023-06-24T01:37:34;97276.63;;;19.91;86.75
35878;BME280;21982;49.804;24.072;2023-06-24T01:40:31;97274.75;;;19.92;86.55
35878;BME280;21982;49.804;24.072;2023-06-24T01:45:41;97262.97;;;19.76;86.81
35878;BME280;21982;49.804;24.072;2023-06-24T01:48:18;97238.75;;;19.71;86.69
35878;BME280;21982;49.804;24.072;2023-06-24T01:50:53;97192.28;;;19.54;86.75
35878;BME280;21982;49.804;24.072;2023-06-24T01:55:57;97295.28;;;20.20;87.00
35878;BME280;21982;49.804;24.072;2023-06-24T02:06:11;97293.84;;;20.34;86.83
35878;BME280;21982;49.804;24.072;2023-06-24T02:08:42;97294.09;;;20.32;86.69
35878;BME280;21982;49.804;24.072;2023-06-24T02:13:46;97184.38;;;19.64;86.51
35878;BME280;21982;49.804;24.072;2023-06-24T02:16:15;97190.16;;;19.56;86.95
35878;BME280;21982;49.804;24.072;2023-06-24T02:18:42;97199.94;;;19.62;86.97
35878;BME280;21982;49.804;24.072;2023-06-24T02:21:09;97153.50;;;19.28;87.34
35878;BME280;21982;49.804;24.072;2023-06-24T02:23:36;97236.94;;;19.98;86.94
35878;BME280;21982;49.804;24.072;2023-06-24T02:26:03;97299.34;;;20.39;87.16
35878;BME280;21982;49.804;24.072;2023-06-24T02:28:31;97257.81;;;20.13;87.14
35878;BME280;21982;49.804;24.072;2023-06-24T02:30:59;97187.69;;;19.71;86.95
35878;BME280;21982;49.804;24.072;2023-06-24T02:33:29;97245.34;;;20.02;87.08
35878;BME280;21982;49.804;24.072;2023-06-24T02:35:54;97301.00;;;20.45;87.24
35878;BME280;21982;49.804;24.072;2023-06-24T02:38:20;97295.69;;;20.50;87.24
35878;BME280;21982;49.804;24.072;2023-06-24T02:40:46;97302.19;;;20.54;86.94
35878;BME280;21982;49.804;24.072;2023-06-24T02:43:11;97285.72;;;20.51;86.85
35878;BME280;21982;49.804;24.072;2023-06-24T02:45:38;97300.69;;;20.63;86.86
35878;BME280;21982;49.804;24.072;2023-06-24T02:48:04;97268.28;;;20.53;86.76
35878;BME280;21982;49.804;24.072;2023-06-24T02:50:30;97247.75;;;20.47;86.65
35878;BME280;21982;49.804;24.072;2023-06-24T02:52:57;97300.81;;;20.73;86.54
35878;BME280;21982;49.804;24.072;2023-06-24T02:55:22;97252.88;;;20.44;86.50
35878;BME280;21982;49.804;24.072;2023-06-24T02:57:49;97269.81;;;20.44;86.24
35878;BME280;21982;49.804;24.072;2023-06-24T03:00:16;97305.00;;;20.64;86.53
35878;BME280;21982;49.804;24.072;2023-06-24T03:02:43;97309.13;;;20.72;86.53
35878;BME280;21982;49.804;24.072;2023-06-24T03:05:10;97307.31;;;20.78;86.52
35878;BME280;21982;49.804;24.072;2023-06-24T03:07:38;97222.25;;;20.28;86.48
35878;BME280;21982;49.804;24.072;2023-06-24T03:10:06;97207.13;;;20.22;86.30
35878;BME280;21982;49.804;24.072;2023-06-24T03:12:32;97290.53;;;20.70;86.16
35878;BME280;21982;49.804;24.072;2023-06-24T03:14:57;97294.66;;;20.78;86.20
35878;BME280;21982;49.804;24.072;2023-06-24T03:17:23;97086.28;;;19.39;86.13
35878;BME280;21982;49.804;24.072;2023-06-24T03:19:50;97229.72;;;20.43;86.18
35878;BME280;21982;49.804;24.072;2023-06-24T03:27:25;97312.59;;;20.94;85.91
35878;BME280;21982;49.804;24.072;2023-06-24T03:29:51;97297.25;;;20.95;85.80
35878;BME280;21982;49.804;24.072;2023-06-24T03:34:51;97311.38;;;21.07;85.85
35878;BME280;21982;49.804;24.072;2023-06-24T03:37:17;97309.56;;;21.13;85.62
35878;BME280;21982;49.804;24.072;2023-06-24T03:42:17;97276.84;;;20.99;85.26
35878;BME280;21982;49.804;24.072;2023-06-24T03:44:44;97270.13;;;21.01;84.91
35878;BME280;21982;49.804;24.072;2023-06-24T03:47:10;97304.53;;;21.21;85.06
35878;BME280;21982;49.804;24.072;2023-06-24T04:03:08;97299.34;;;21.20;84.49
35878;BME280;21982;49.804;24.072;2023-06-24T04:05:34;97274.19;;;21.04;84.53
35878;BME280;21982;49.804;24.072;2023-06-24T04:08:00;97296.63;;;21.15;84.49
35878;BME280;21982;49.804;24.072;2023-06-24T04:10:25;97289.63;;;21.14;84.54
35878;BME280;21982;49.804;24.072;2023-06-24T04:15:27;97123.88;;;20.32;84.38
35878;BME280;21982;49.804;24.072;2023-06-24T04:26:44;97282.34;;;21.78;83.58
35878;BME280;21982;49.804;24.072;2023-06-24T04:29:09;97226.72;;;21.62;82.83
35878;BME280;21982;49.804;24.072;2023-06-24T04:31:35;97277.63;;;22.00;82.40
35878;BME280;21982;49.804;24.072;2023-06-24T04:34:00;97289.78;;;22.03;82.18
35878;BME280;21982;49.804;24.072;2023-06-24T04:40:14;97236.63;;;21.98;82.02
35878;BME280;21982;49.804;24.072;2023-06-24T04:42:40;97250.47;;;22.12;81.74
35878;BME280;21982;49.804;24.072;2023-06-24T04:45:06;97285.41;;;22.44;81.41
35878;BME280;21982;49.804;24.072;2023-06-24T04:47:31;97274.34;;;22.46;80.89
35878;BME280;21982;49.804;24.072;2023-06-24T04:49:56;97213.50;;;22.08;80.55
35878;BME280;21982;49.804;24.072;2023-06-24T04:52:27;97208.66;;;22.10;80.06
35878;BME280;21982;49.804;24.072;2023-06-24T04:54:59;97294.06;;;22.51;80.13
35878;BME280;21982;49.804;24.072;2023-06-24T04:57:29;97282.72;;;22.44;80.37
35878;BME280;21982;49.804;24.072;2023-06-24T05:02:30;97174.97;;;21.60;80.89
35878;BME280;21982;49.804;24.072;2023-06-24T05:04:55;97091.78;;;21.21;80.57
35878;BME280;21982;49.804;24.072;2023-06-24T05:07:21;97280.56;;;22.56;80.46
35878;BME280;21982;49.804;24.072;2023-06-24T05:09:48;97209.47;;;22.10;80.21
35878;BME280;21982;49.804;24.072;2023-06-24T05:12:13;97187.00;;;21.99;80.24
35878;BME280;21982;49.804;24.072;2023-06-24T05:14:39;97221.91;;;22.21;79.98
35878;BME280;21982;49.804;24.072;2023-06-24T05:19:39;97077.31;;;21.32;79.91
35878;BME280;21982;49.804;24.072;2023-06-24T05:22:05;97242.75;;;22.36;79.88
35878;BME280;21982;49.804;24.072;2023-06-24T05:24:30;97288.16;;;22.64;79.94
35878;BME280;21982;49.804;24.072;2023-06-24T05:26:55;97241.59;;;22.22;79.34
35878;BME280;21982;49.804;24.072;2023-06-24T05:29:21;97176.94;;;21.74;79.57
35878;BME280;21982;49.804;24.072;2023-06-24T05:31:46;97290.81;;;22.49;80.16
35878;BME280;21982;49.804;24.072;2023-06-24T05:34:12;97199.41;;;21.95;79.69
35878;BME280;21982;49.804;24.072;2023-06-24T05:36:37;97141.91;;;21.85;79.49
35878;BME280;21982;49.804;24.072;2023-06-24T05:39:02;97285.44;;;22.59;79.55
35878;BME280;21982;49.804;24.072;2023-06-24T05:41:28;97234.03;;;22.14;79.59
35878;BME280;21982;49.804;24.072;2023-06-24T05:44:04;97299.25;;;22.68;79.39
35878;BME280;21982;49.804;24.072;2023-06-24T05:46:30;97284.38;;;22.60;79.79
35878;BME280;21982;49.804;24.072;2023-06-24T05:48:55;97268.72;;;22.62;79.62
35878;BME280;21982;49.804;24.072;2023-06-24T05:51:22;97295.28;;;22.91;79.69
35878;BME280;21982;49.804;24.072;2023-06-24T05:53:48;97290.19;;;23.10;79.22
35878;BME280;21982;49.804;24.072;2023-06-24T05:56:13;97226.16;;;22.95;78.71
35878;BME280;21982;49.804;24.072;2023-06-24T05:58:39;97194.84;;;23.19;77.71
35878;BME280;21982;49.804;24.072;2023-06-24T06:01:05;97248.88;;;23.55;76.67
35878;BME280;21982;49.804;24.072;2023-06-24T06:03:31;97239.09;;;23.89;76.04
35878;BME280;21982;49.804;24.072;2023-06-24T06:05:56;97102.41;;;23.37;74.94
35878;BME280;21982;49.804;24.072;2023-06-24T06:08:22;97102.38;;;23.48;74.21
35878;BME280;21982;49.804;24.072;2023-06-24T06:10:47;97298.88;;;24.62;73.84
35878;BME280;21982;49.804;24.072;2023-06-24T06:13:13;97244.91;;;24.27;73.67
35878;BME280;21982;49.804;24.072;2023-06-24T06:15:39;97236.28;;;24.15;73.76
35878;BME280;21982;49.804;24.072;2023-06-24T06:20:42;97241.72;;;24.04;73.67
35878;BME280;21982;49.804;24.072;2023-06-24T06:23:11;97295.50;;;24.26;73.83
35878;BME280;21982;49.804;24.072;2023-06-24T06:25:36;97274.97;;;24.20;73.78
35878;BME280;21982;49.804;24.072;2023-06-24T06:28:05;97235.31;;;23.90;73.68
35878;BME280;21982;49.804;24.072;2023-06-24T06:30:30;97255.50;;;24.08;73.79
35878;BME280;21982;49.804;24.072;2023-06-24T06:32:56;97304.44;;;24.22;73.21
35878;BME280;21982;49.804;24.072;2023-06-24T06:35:22;97278.84;;;23.84;73.60
35878;BME280;21982;49.804;24.072;2023-06-24T06:37:47;97248.06;;;23.54;74.02
35878;BME280;21982;49.804;24.072;2023-06-24T06:40:17;97335.59;;;23.94;74.34
35878;BME280;21982;49.804;24.072;2023-06-24T06:45:18;97063.06;;;22.15;74.51
35878;BME280;21982;49.804;24.072;2023-06-24T06:47:45;97199.66;;;22.77;74.68
35878;BME280;21982;49.804;24.072;2023-06-24T07:00:37;97343.44;;;23.39;76.09
35878;BME280;21982;49.804;24.072;2023-06-24T07:03:30;97176.06;;;22.21;76.44
35878;BME280;21982;49.804;24.072;2023-06-24T07:05:55;97352.38;;;23.45;76.31
35878;BME280;21982;49.804;24.072;2023-06-24T07:08:21;97322.06;;;23.23;76.34
35878;BME280;21982;49.804;24.072;2023-06-24T07:10:46;97127.22;;;22.13;76.18
35878;BME280;21982;49.804;24.072;2023-06-24T07:13:11;97300.47;;;23.18;75.87
35878;BME280;21982;49.804;24.072;2023-06-24T07:15:37;97171.22;;;22.28;76.43
35878;BME280;21982;49.804;24.072;2023-06-24T07:18:02;97217.41;;;22.57;76.39
35878;BME280;21982;49.804;24.072;2023-06-24T07:33:17;97313.63;;;22.94;77.69
35878;BME280;21982;49.804;24.072;2023-06-24T07:35:42;97245.50;;;22.56;77.99
35878;BME280;21982;49.804;24.072;2023-06-24T07:40:58;97100.16;;;21.87;77.48
35878;BME280;21982;49.804;24.072;2023-06-24T07:51:10;97223.19;;;23.01;76.48
35878;BME280;21982;49.804;24.072;2023-06-24T07:53:38;97200.75;;;22.91;75.75
35878;BME280;21982;49.804;24.072;2023-06-24T07:56:10;97185.09;;;22.98;75.29
35878;BME280;21982;49.804;24.072;2023-06-24T07:58:56;97301.84;;;23.61;75.40
35878;BME280;21982;49.804;24.072;2023-06-24T08:01:22;97080.88;;;22.36;75.03
35878;BME280;21982;49.804;24.072;2023-06-24T08:08:57;97197.47;;;23.80;73.75
35878;BME280;21982;49.804;24.072;2023-06-24T08:11:23;97332.59;;;24.95;73.02
35878;BME280;21982;49.804;24.072;2023-06-24T08:13:48;97221.00;;;24.49;72.22
35878;BME280;21982;49.804;24.072;2023-06-24T08:16:16;97272.19;;;24.95;71.11
35878;BME280;21982;49.804;24.072;2023-06-24T08:18:43;97212.31;;;24.52;71.21
35878;BME280;21982;49.804;24.072;2023-06-24T08:21:09;97106.16;;;23.52;70.95
35878;BME280;21982;49.804;24.072;2023-06-24T08:23:34;97316.75;;;24.63;71.50
35878;BME280;21982;49.804;24.072;2023-06-24T08:25:59;97320.63;;;24.47;71.98
35878;BME280;21982;49.804;24.072;2023-06-24T08:28:25;97215.34;;;23.61;72.20
35878;BME280;21982;49.804;24.072;2023-06-24T08:30:50;97305.28;;;24.17;72.02
35878;BME280;21982;49.804;24.072;2023-06-24T08:33:16;97297.41;;;24.26;72.19
35878;BME280;21982;49.804;24.072;2023-06-24T08:35:48;97309.25;;;24.45;71.98
35878;BME280;21982;49.804;24.072;2023-06-24T08:38:13;97310.34;;;24.44;71.59
35878;BME280;21982;49.804;24.072;2023-06-24T08:40:39;97360.06;;;24.68;71.58
35878;BME280;21982;49.804;24.072;2023-06-24T08:43:06;97357.03;;;24.80;71.14
35878;BME280;21982;49.804;24.072;2023-06-24T08:45:31;97344.63;;;24.69;71.13
35878;BME280;21982;49.804;24.072;2023-06-24T08:47:58;97342.72;;;24.69;71.03
35878;BME280;21982;49.804;24.072;2023-06-24T08:50:27;97389.97;;;25.08;70.43
35878;BME280;21982;49.804;24.072;2023-06-24T08:52:55;97300.84;;;24.57;70.65
35878;BME280;21982;49.804;24.072;2023-06-24T08:55:23;97386.16;;;25.14;70.42
35878;BME280;21982;49.804;24.072;2023-06-24T08:57:49;97220.13;;;23.94;70.21
35878;BME280;21982;49.804;24.072;2023-06-24T09:02:50;97204.97;;;23.98;69.71
35878;BME280;21982;49.804;24.072;2023-06-24T09:05:15;97180.69;;;23.78;69.97
35878;BME280;21982;49.804;24.072;2023-06-24T09:07:42;97249.81;;;24.25;69.75
35878;BME280;21982;49.804;24.072;2023-06-24T09:10:07;97168.28;;;23.67;69.74
35878;BME280;21982;49.804;24.072;2023-06-24T09:12:34;97177.22;;;23.67;69.71
35878;BME280;21982;49.804;24.072;2023-06-24T09:14:59;97293.31;;;24.44;69.79
35878;BME280;21982;49.804;24.072;2023-06-24T09:17:25;97282.72;;;24.47;69.84
35878;BME280;21982;49.804;24.072;2023-06-24T09:19:53;97357.47;;;25.08;69.68
35878;BME280;21982;49.804;24.072;2023-06-24T09:22:19;97411.75;;;25.42;69.39
35878;BME280;21982;49.804;24.072;2023-06-24T09:24:46;97360.47;;;25.06;69.42
35878;BME280;21982;49.804;24.072;2023-06-24T09:27:16;97404.09;;;25.54;69.15
35878;BME280;21982;49.804;24.072;2023-06-24T09:29:43;97279.72;;;25.03;68.81
35878;BME280;21982;49.804;24.072;2023-06-24T09:32:10;97407.09;;;26.20;67.88
35878;BME280;21982;49.804;24.072;2023-06-24T09:34:36;97416.72;;;26.65;66.18
35878;BME280;21982;49.804;24.072;2023-06-24T09:37:01;97346.13;;;26.84;65.33
35878;BME280;21982;49.804;24.072;2023-06-24T09:39:27;97352.84;;;27.11;64.06
35878;BME280;21982;49.804;24.072;2023-06-24T09:41:57;97350.81;;;27.21;63.55
35878;BME280;21982;49.804;24.072;2023-06-24T09:44:22;97366.75;;;27.28;62.71
35878;BME280;21982;49.804;24.072;2023-06-24T09:46:48;97356.19;;;27.26;63.07
35878;BME280;21982;49.804;24.072;2023-06-24T09:49:15;97346.81;;;26.95;62.72
35878;BME280;21982;49.804;24.072;2023-06-24T09:51:46;97377.63;;;26.85;62.99
35878;BME280;21982;49.804;24.072;2023-06-24T09:54:12;97346.97;;;26.61;63.50
35878;BME280;21982;49.804;24.072;2023-06-24T09:56:43;97425.97;;;27.12;63.15
35878;BME280;21982;49.804;24.072;2023-06-24T09:59:11;97403.84;;;27.00;62.75
35878;BME280;21982;49.804;24.072;2023-06-24T10:01:39;97344.88;;;26.53;62.76
35878;BME280;21982;49.804;24.072;2023-06-24T10:04:06;97342.09;;;26.34;62.67
35878;BME280;21982;49.804;24.072;2023-06-24T10:06:33;97268.09;;;25.70;62.89
35878;BME280;21982;49.804;24.072;2023-06-24T10:08:58;97375.28;;;26.31;63.17
35878;BME280;21982;49.804;24.072;2023-06-24T10:11:24;97431.56;;;26.49;63.75
35878;BME280;21982;49.804;24.072;2023-06-24T10:13:49;97382.63;;;25.96;63.83
35878;BME280;21982;49.804;24.072;2023-06-24T10:16:16;97438.88;;;26.20;64.29
35878;BME280;21982;49.804;24.072;2023-06-24T10:23:52;97395.22;;;25.38;65.16
35878;BME280;21982;49.804;24.072;2023-06-24T10:29:09;97431.31;;;25.33;65.71
35878;BME280;21982;49.804;24.072;2023-06-24T10:37:18;97389.28;;;24.82;67.13
35878;BME280;21982;49.804;24.072;2023-06-24T10:39:49;97378.72;;;24.75;67.10
35878;BME280;21982;49.804;24.072;2023-06-24T10:47:38;97434.75;;;24.85;67.97
35878;BME280;21982;49.804;24.072;2023-06-24T10:50:06;97388.81;;;24.59;68.03
35878;BME280;21982;49.804;24.072;2023-06-24T10:52:37;97432.59;;;24.87;67.77
35878;BME280;21982;49.804;24.072;2023-06-24T10:55:03;97424.16;;;24.98;67.48
35878;BME280;21982;49.804;24.072;2023-06-24T10:57:29;97312.53;;;24.42;66.83
35878;BME280;21982;49.804;24.072;2023-06-24T10:59:56;97394.09;;;24.95;66.78
35878;BME280;21982;49.804;24.072;2023-06-24T11:02:23;97425.97;;;25.18;66.40
35878;BME280;21982;49.804;24.072;2023-06-24T11:07:23;97205.25;;;23.92;65.78
35878;BME280;21982;49.804;24.072;2023-06-24T11:09:56;97305.44;;;24.56;66.01
35878;BME280;21982;49.804;24.072;2023-06-24T11:12:27;97421.34;;;25.68;65.38
35878;BME280;21982;49.804;24.072;2023-06-24T11:14:59;97375.47;;;25.77;65.06
35878;BME280;21982;49.804;24.072;2023-06-24T11:17:26;97395.47;;;26.15;64.16
35878;BME280;21982;49.804;24.072;2023-06-24T11:19:53;97424.97;;;26.55;63.41
35878;BME280;21982;49.804;24.072;2023-06-24T11:22:18;97431.31;;;26.46;63.50
35878;BME280;21982;49.804;24.072;2023-06-24T11:24:43;97309.63;;;25.66;63.98
35878;BME280;21982;49.804;24.072;2023-06-24T11:27:12;97423.97;;;26.46;63.86
35878;BME280;21982;49.804;24.072;2023-06-24T11:29:44;97404.34;;;26.54;63.62
35878;BME280;21982;49.804;24.072;2023-06-24T11:32:10;97245.53;;;25.46;63.08
35878;BME280;21982;49.804;24.072;2023-06-24T11:34:36;97400.53;;;26.26;63.45
35878;BME280;21982;49.804;24.072;2023-06-24T11:37:16;97418.78;;;26.21;63.56
35878;BME280;21982;49.804;24.072;2023-06-24T11:39:42;97376.34;;;25.67;64.04
35878;BME280;21982;49.804;24.072;2023-06-24T11:42:08;97412.63;;;25.76;64.10
35878;BME280;21982;49.804;24.072;2023-06-24T11:44:35;97413.31;;;25.53;64.46
35878;BME280;21982;49.804;24.072;2023-06-24T11:47:08;97408.59;;;25.29;64.56
35878;BME280;21982;49.804;24.072;2023-06-24T11:57:19;97415.66;;;24.35;67.22
35878;BME280;21982;49.804;24.072;2023-06-24T11:59:44;97373.47;;;24.04;67.62
35878;BME280;21982;49.804;24.072;2023-06-24T12:02:13;97379.16;;;23.92;68.00
35878;BME280;21982;49.804;24.072;2023-06-24T12:04:43;97410.78;;;24.32;68.14
35878;BME280;21982;49.804;24.072;2023-06-24T12:07:08;97417.28;;;24.26;68.38
35878;BME280;21982;49.804;24.072;2023-06-24T12:09:34;97413.78;;;24.16;68.46
35878;BME280;21982;49.804;24.072;2023-06-24T12:12:02;97414.84;;;24.04;68.48
35878;BME280;21982;49.804;24.072;2023-06-24T12:14:27;97399.16;;;23.91;68.50
35878;BME280;21982;49.804;24.072;2023-06-24T12:16:53;97372.66;;;23.68;68.02
35878;BME280;21982;49.804;24.072;2023-06-24T12:19:18;97402.16;;;23.85;68.01
35878;BME280;21982;49.804;24.072;2023-06-24T12:21:46;97204.22;;;22.66;67.86
35878;BME280;21982;49.804;24.072;2023-06-24T12:24:11;97346.44;;;23.48;67.92
35878;BME280;21982;49.804;24.072;2023-06-24T12:26:38;97296.41;;;23.10;67.66
35878;BME280;21982;49.804;24.072;2023-06-24T12:29:03;97410.53;;;23.68;67.98
35878;BME280;21982;49.804;24.072;2023-06-24T12:31:29;97436.25;;;23.91;68.13
35878;BME280;21982;49.804;24.072;2023-06-24T12:33:58;97409.72;;;23.67;67.97
35878;BME280;21982;49.804;24.072;2023-06-24T12:36:23;97446.78;;;23.87;68.33
35878;BME280;21982;49.804;24.072;2023-06-24T12:38:49;97454.63;;;23.79;67.97
35878;BME280;21982;49.804;24.072;2023-06-24T12:41:14;97418.56;;;23.37;68.71
35878;BME280;21982;49.804;24.072;2023-06-24T12:43:40;97452.59;;;23.33;69.40
35878;BME280;21982;49.804;24.072;2023-06-24T12:46:05;97420.66;;;23.10;69.43
35878;BME280;21982;49.804;24.072;2023-06-24T12:48:31;97463.41;;;23.33;69.87
35878;BME280;21982;49.804;24.072;2023-06-24T12:50:56;97472.03;;;23.30;69.96
35878;BME280;21982;49.804;24.072;2023-06-24T12:53:22;97414.63;;;22.93;70.47
35878;BME280;21982;49.804;24.072;2023-06-24T12:55:47;97417.91;;;23.00;70.65
35878;BME280;21982;49.804;24.072;2023-06-24T12:58:23;97461.22;;;23.30;70.38
35878;BME280;21982;49.804;24.072;2023-06-24T13:00:50;97426.28;;;22.98;70.92
35878;BME280;21982;49.804;24.072;2023-06-24T13:03:15;97465.31;;;23.38;70.68
35878;BME280;21982;49.804;24.072;2023-06-24T13:05:41;97467.22;;;23.43;70.91
35878;BME280;21982;49.804;24.072;2023-06-24T13:08:06;97423.91;;;23.12;70.82
35878;BME280;21982;49.804;24.072;2023-06-24T13:10:32;97430.13;;;23.18;70.94
35878;BME280;21982;49.804;24.072;2023-06-24T13:12:58;97467.78;;;23.45;70.78
35878;BME280;21982;49.804;24.072;2023-06-24T13:15:24;97434.72;;;23.22;70.77
35878;BME280;21982;49.804;24.072;2023-06-24T13:17:50;97439.63;;;23.35;70.77
35878;BME280;21982;49.804;24.072;2023-06-24T13:20:16;97476.47;;;23.62;70.92
35878;BME280;21982;49.804;24.072;2023-06-24T13:22:42;97456.22;;;23.54;70.94
35878;BME280;21982;49.804;24.072;2023-06-24T13:25:10;97458.63;;;23.61;70.28
35878;BME280;21982;49.804;24.072;2023-06-24T13:27:38;97446.47;;;23.58;71.08
35878;BME280;21982;49.804;24.072;2023-06-24T13:30:04;97372.03;;;23.15;70.70
35878;BME280;21982;49.804;24.072;2023-06-24T13:32:30;97404.81;;;23.49;70.33
35878;BME280;21982;49.804;24.072;2023-06-24T13:34:56;97320.13;;;22.93;69.54
35878;BME280;21982;49.804;24.072;2023-06-24T13:37:21;97468.41;;;23.97;69.51
35878;BME280;21982;49.804;24.072;2023-06-24T13:39:46;97386.44;;;23.51;69.36
35878;BME280;21982;49.804;24.072;2023-06-24T13:42:13;97466.53;;;23.98;68.80
35878;BME280;21982;49.804;24.072;2023-06-24T13:47:13;97467.88;;;24.05;68.96
35878;BME280;21982;49.804;24.072;2023-06-24T13:50:02;97363.44;;;23.44;68.22
35878;BME280;21982;49.804;24.072;2023-06-24T13:52:34;97464.63;;;23.98;68.75
35878;BME280;21982;49.804;24.072;2023-06-24T13:54:59;97462.47;;;24.11;68.42
35878;BME280;21982;49.804;24.072;2023-06-24T13:57:25;97454.88;;;24.02;68.03
35878;BME280;21982;49.804;24.072;2023-06-24T13:59:50;97460.84;;;23.99;68.40
35878;BME280;21982;49.804;24.072;2023-06-24T14:02:15;97473.84;;;24.08;68.16
35878;BME280;21982;49.804;24.072;2023-06-24T14:04:41;97311.25;;;23.13;68.23
35878;BME280;21982;49.804;24.072;2023-06-24T14:07:07;97472.75;;;24.09;68.69
35878;BME280;21982;49.804;24.072;2023-06-24T14:09:33;97470.59;;;24.11;68.44
35878;BME280;21982;49.804;24.072;2023-06-24T14:11:58;97432.19;;;23.88;68.10
35878;BME280;21982;49.804;24.072;2023-06-24T14:14:24;97470.84;;;23.99;68.22
35878;BME280;21982;49.804;24.072;2023-06-24T14:19:25;97345.00;;;23.00;68.33
35878;BME280;21982;49.804;24.072;2023-06-24T14:21:50;97476.50;;;23.72;67.95
35878;BME280;21982;49.804;24.072;2023-06-24T14:24:16;97477.00;;;23.59;68.15
35878;BME280;21982;49.804;24.072;2023-06-24T14:26:42;97246.34;;;21.99;67.56
35878;BME280;21982;49.804;24.072;2023-06-24T14:29:07;97264.09;;;21.95;67.52
35878;BME280;21982;49.804;24.072;2023-06-24T14:31:32;97269.16;;;21.82;67.98
35878;BME280;21982;49.804;24.072;2023-06-24T14:33:58;97477.88;;;23.02;68.13
35878;BME280;21982;49.804;24.072;2023-06-24T14:36:23;97252.78;;;21.51;67.72
35878;BME280;21982;49.804;24.072;2023-06-24T14:41:27;97413.84;;;22.45;68.23
35878;BME280;21982;49.804;24.072;2023-06-24T14:43:52;97439.56;;;22.63;68.06
35878;BME280;21982;49.804;24.072;2023-06-24T14:46:18;97495.66;;;22.93;67.72
35878;BME280;21982;49.804;24.072;2023-06-24T14:48:43;97422.00;;;22.60;67.93
35878;BME280;21982;49.804;24.072;2023-06-24T14:51:09;97428.91;;;22.78;67.45
35878;BME280;21982;49.804;24.072;2023-06-24T14:53:34;97460.34;;;23.10;67.33
35878;BME280;21982;49.804;24.072;2023-06-24T14:55:59;97435.22;;;23.04;66.46
35878;BME280;21982;49.804;24.072;2023-06-24T14:58:25;97419.00;;;23.04;66.01
35878;BME280;21982;49.804;24.072;2023-06-24T15:00:50;97484.31;;;23.53;66.36
35878;BME280;21982;49.804;24.072;2023-06-24T15:03:15;97480.81;;;23.68;65.31
35878;BME280;21982;49.804;24.072;2023-06-24T15:05:41;97419.63;;;23.36;65.40
35878;BME280;21982;49.804;24.072;2023-06-24T15:08:06;97440.53;;;23.56;65.06
35878;BME280;21982;49.804;24.072;2023-06-24T15:18:17;97471.34;;;23.55;65.66
35878;BME280;21982;49.804;24.072;2023-06-24T15:20:50;97484.88;;;23.65;65.33
35878;BME280;21982;49.804;24.072;2023-06-24T15:23:16;97417.97;;;23.25;65.90
35878;BME280;21982;49.804;24.072;2023-06-24T15:25:41;97351.44;;;22.84;65.96
35878;BME280;21982;49.804;24.072;2023-06-24T15:28:07;97459.72;;;23.55;65.82
35878;BME280;21982;49.804;24.072;2023-06-24T15:30:32;97213.97;;;21.99;65.39
35878;BME280;21982;49.804;24.072;2023-06-24T15:32:57;97434.78;;;23.37;65.62
35878;BME280;21982;49.804;24.072;2023-06-24T15:35:25;97472.69;;;23.63;65.92
35878;BME280;21982;49.804;24.072;2023-06-24T15:37:52;97251.28;;;22.13;65.73
35878;BME280;21982;49.804;24.072;2023-06-24T15:40:17;97375.34;;;22.65;66.16
35878;BME280;21982;49.804;24.072;2023-06-24T15:42:43;97429.31;;;23.12;66.27